Time;durP1;ratioP1;P1;durP2;ratioP2;P2;SDS_P1;SDS_P2;PMS_P1;PMS_P2;Temp;Humidity;BMP_temperature;BMP_pressure;BME280_temperature;BME280_humidity;BME280_pressure;Samples;Min_cycle;Max_cycle;Signal;HPM_P1;HPM_P2
2021/06/04 00:01:00;;;;;;;;;;;;;;;;;;2131233;59;1340;-68
2021/06/04 00:03:26;;;;;;;;;;;;;;;;;;2130437;66;1971;-68
2021/06/04 00:05:52;;;;;;;;;;;;;;;;;;2131666;66;1081;-68
2021/06/04 00:08:19;;;;;;;;;;;;;;;;;;2128404;59;2066;-68
2021/06/04 00:10:48;;;;;;;;;;;;;;;;;;2130217;66;1257;-68
2021/06/04 00:13:16;;;;;;;;;;;;;;;;;;2130562;59;1231;-68
2021/06/04 00:15:42;;;;;;;;;;;;;;;;;;2130787;59;1266;-68
2021/06/04 00:18:07;;;;;;;;;;;;;;;;;;2130196;66;1306;-68
2021/06/04 00:20:32;;;;;;;;;;;;;;;;;;2131004;66;1365;-68
2021/06/04 00:22:58;;;;;;;;;;;;;;;;;;2131128;59;1314;-68
2021/06/04 00:25:23;;;;;;;;;;;;;;;;;;2130105;59;1981;-69
2021/06/04 00:27:48;;;;;;;;;;;;;;;;;;2128093;59;2217;-69
2021/06/04 00:30:14;;;;;;;;;;;;;;;;;;2127591;59;2651;-68
2021/06/04 00:32:40;;;;;;;;;;;;;;;;;;2129961;66;1235;-68
2021/06/04 00:35:06;;;;;;;;;;;;;;;;;;2131950;66;1077;-68
2021/06/04 00:37:31;;;;;;;;;;;;;;;;;;2129581;66;1250;-68
2021/06/04 00:39:56;;;;;;;;;;;;;;;;;;2129072;59;1252;-68
2021/06/04 00:42:28;;;;;;;;;;;;;;;;;;2129977;66;1227;-68
2021/06/04 00:44:55;;;;;;;;;;;;;;;;;;2130175;66;1993;-68
2021/06/04 00:47:20;;;;;;;;;;;;;;;;;;2135270;66;1600;-68
2021/06/04 00:49:45;;;;;;;;;;;;;;;;;;2130336;66;1354;-68
2021/06/04 00:52:16;;;;;;;;;;;;;;;;;;2130330;66;1066;-68
2021/06/04 00:54:42;;;;;;;;;;;;;;;;;;2131635;66;1170;-68
2021/06/04 00:57:08;;;;;;;;;;;;;;;;;;2130848;59;1084;-68
2021/06/04 00:59:37;;;;;;;;;;;;;;;;;;2136296;66;1324;-71
2021/06/04 01:02:04;;;;;;;;;;;;;;;;;;2129984;66;1098;-70
2021/06/04 01:04:30;;;;;;;;;;;;;;;;;;2130689;66;2036;-71
2021/06/04 01:07:01;;;;;;;;;;;;;;;;;;2131690;59;1426;-70
2021/06/04 01:09:30;;;;;;;;;;;;;;;;;;2128881;66;1413;-68
2021/06/04 01:11:58;;;;;;;;;;;;;;;;;;2131482;66;1133;-68
2021/06/04 01:14:28;;;;;;;;;;;;;;;;;;2131558;66;1122;-68
2021/06/04 01:17:01;;;;;;;;;;;;;;;;;;2132430;59;1549;-68
2021/06/04 01:19:46;;;;;;;;;;;;;;;;;;2131158;66;1322;-68
2021/06/04 01:22:23;;;;;;;;;;;;;;;;;;2131181;66;1313;-68
2021/06/04 01:24:49;;;;;;;;;;;;;;;;;;2135549;66;1924;-68
2021/06/04 01:27:26;;;;;;;;;;;;;;;;;;2132675;59;2295;-68
2021/06/04 01:30:14;;;;;;;;;;;;;;;;;;2128173;58;2560;-68
2021/06/04 01:32:40;;;;;;;;;;;;;;;;;;2127667;66;2813;-68
2021/06/04 01:35:10;;;;;;;;;;;;;;;;;;2132829;66;1171;-68
2021/06/04 01:37:36;;;;;;;;;;;;;;;;;;2130508;66;1044;-68
2021/06/04 01:40:07;;;;;;;;;;;;;;;;;;2130850;59;1183;-71
2021/06/04 01:42:34;;;;;;;;;;;;;;;;;;2129499;66;1463;-68
2021/06/04 01:45:13;;;;;;;;;;;;;;;;;;2132889;66;1972;-68
2021/06/04 01:47:40;;;;;;;;;;;;;;;;;;2128633;59;1301;-68
2021/06/04 01:50:12;;;;;;;;;;;;;;;;;;2130240;66;1291;-68
2021/06/04 01:52:38;;;;;;;;;;;;;;;;;;2129592;66;1141;-68
2021/06/04 01:55:08;;;;;;;;;;;;;;;;;;2130762;59;1072;-68
2021/06/04 01:57:36;;;;;;;;;;;;;;;;;;2127737;66;1131;-68
2021/06/04 02:00:04;;;;;;;;;;;;;;;;;;2128850;59;1403;-68
2021/06/04 02:02:33;;;;;;;;;;;;;;;;;;2129896;59;1093;-68
2021/06/04 02:04:58;;;;;;;;;;;;;;;;;;2133667;66;1916;-68
2021/06/04 02:07:30;;;;;;;;;;;;;;;;;;2129373;66;1815;-68
2021/06/04 02:09:56;;;;;;;;;;;;;;;;;;2129017;58;1337;-68
2021/06/04 02:12:21;;;;;;;;;;;;;;;;;;2128623;66;1191;-68
2021/06/04 02:14:49;;;;;;;;;;;;;;;;;;2138179;59;1291;-68
2021/06/04 02:17:21;;;;;;;;;;;;;;;;;;2130351;66;1140;-68
2021/06/04 02:20:06;;;;;;;;;;;;;;;;;;2130225;66;1198;-68
2021/06/04 02:22:35;;;;;;;;;;;;;;;;;;2130245;66;1078;-70
2021/06/04 02:25:00;;;;;;;;;;;;;;;;;;2133154;66;1928;-70
2021/06/04 02:27:32;;;;;;;;;;;;;;;;;;2130022;66;1170;-71
2021/06/04 02:30:00;;;;;;;;;;;;;;;;;;2128045;59;2191;-71
2021/06/04 02:32:29;;;;;;;;;;;;;;;;;;2126012;59;2297;-68
2021/06/04 02:35:06;;;;;;;;;;;;;;;;;;2131006;66;1306;-68
2021/06/04 02:37:34;;;;;;;;;;;;;;;;;;2129419;59;1216;-68
2021/06/04 02:40:02;;;;;;;;;;;;;;;;;;2135590;58;1243;-68
2021/06/04 02:42:32;;;;;;;;;;;;;;;;;;2127647;58;1291;-68
2021/06/04 02:45:00;;;;;;;;;;;;;;;;;;2132422;66;1920;-68
2021/06/04 02:47:27;;;;;;;;;;;;;;;;;;2128262;66;2050;-68
2021/06/04 02:49:54;;;;;;;;;;;;;;;;;;2129559;66;1267;-68
2021/06/04 02:52:25;;;;;;;;;;;;;;;;;;2130309;66;1266;-68
2021/06/04 02:54:51;;;;;;;;;;;;;;;;;;2132114;66;1197;-68
2021/06/04 02:57:17;;;;;;;;;;;;;;;;;;2131093;66;1293;-71
2021/06/04 02:59:45;;;;;;;;;;;;;;;;;;2128746;59;1285;-68
2021/06/04 03:02:10;;;;;;;;;;;;;;;;;;2127792;66;1027;-70
2021/06/04 03:04:37;;;;;;;;;;;;;;;;;;2128454;66;1979;-70
2021/06/04 03:07:07;;;;;;;;;;;;;;;;;;2129780;59;1260;-70
2021/06/04 03:09:35;;;;;;;;;;;;;;;;;;2131073;66;1157;-70
2021/06/04 03:12:02;;;;;;;;;;;;;;;;;;2131251;66;1496;-70
2021/06/04 03:14:28;;;;;;;;;;;;;;;;;;2129171;59;1206;-70
2021/06/04 03:16:54;;;;;;;;;;;;;;;;;;2130418;59;1588;-70
2021/06/04 03:19:20;;;;;;;;;;;;;;;;;;2135916;66;1270;-68
2021/06/04 03:21:57;;;;;;;;;;;;;;;;;;2129691;66;1153;-68
2021/06/04 03:24:25;;;;;;;;;;;;;;;;;;2135014;59;2054;-68
2021/06/04 03:26:51;;;;;;;;;;;;;;;;;;2129886;66;2145;-69
2021/06/04 03:29:17;;;;;;;;;;;;;;;;;;2129423;66;1303;-68
2021/06/04 03:31:45;;;;;;;;;;;;;;;;;;2125994;59;2314;-69
2021/06/04 03:34:10;;;;;;;;;;;;;;;;;;2133979;59;2591;-69
2021/06/04 03:36:39;;;;;;;;;;;;;;;;;;2130129;66;1272;-69
2021/06/04 03:39:06;;;;;;;;;;;;;;;;;;2131359;58;1237;-68
2021/06/04 03:41:33;;;;;;;;;;;;;;;;;;2125770;59;1815;-68
2021/06/04 03:43:59;;;;;;;;;;;;;;;;;;2128756;66;1988;-68
2021/06/04 03:46:24;;;;;;;;;;;;;;;;;;2130426;66;1190;-68
2021/06/04 03:48:49;;;;;;;;;;;;;;;;;;2128152;59;1323;-68
2021/06/04 03:51:20;;;;;;;;;;;;;;;;;;2130226;66;1318;-68
2021/06/04 03:53:45;;;;;;;;;;;;;;;;;;2128334;66;1302;-68
2021/06/04 03:56:12;;;;;;;;;;;;;;;;;;2138567;66;1231;-68
2021/06/04 03:58:38;;;;;;;;;;;;;;;;;;2129095;66;1186;-68
2021/06/04 04:01:07;;;;;;;;;;;;;;;;;;2131522;59;1289;-68
2021/06/04 04:03:33;;;;;;;;;;;;;;;;;;2128496;66;1975;-68
2021/06/04 04:05:58;;;;;;;;;;;;;;;;;;2131313;66;1152;-69
2021/06/04 04:08:24;;;;;;;;;;;;;;;;;;2128452;66;1132;-68
2021/06/04 04:10:50;;;;;;;;;;;;;;;;;;2128530;66;1526;-68
2021/06/04 04:13:16;;;;;;;;;;;;;;;;;;2131613;66;1177;-68
2021/06/04 04:15:42;;;;;;;;;;;;;;;;;;2128614;66;1328;-68
2021/06/04 04:18:07;;;;;;;;;;;;;;;;;;2131130;59;1094;-68
2021/06/04 04:20:34;;;;;;;;;;;;;;;;;;2136471;66;1221;-71
2021/06/04 04:23:00;;;;;;;;;;;;;;;;;;2130917;66;1158;-68
2021/06/04 04:25:27;;;;;;;;;;;;;;;;;;2136634;59;1924;-68
2021/06/04 04:27:52;;;;;;;;;;;;;;;;;;2129812;59;2267;-68
2021/06/04 04:30:18;;;;;;;;;;;;;;;;;;2138459;59;1587;-68
2021/06/04 04:32:44;;;;;;;;;;;;;;;;;;2129142;59;2211;-68
2021/06/04 04:35:12;;;;;;;;;;;;;;;;;;2128633;59;2227;-69
2021/06/04 04:37:37;;;;;;;;;;;;;;;;;;2129346;66;1291;-68
2021/06/04 04:40:04;;;;;;;;;;;;;;;;;;2140092;58;3724;-69
2021/06/04 04:42:29;;;;;;;;;;;;;;;;;;2150638;58;1771;-69
2021/06/04 04:44:54;;;;;;;;;;;;;;;;;;2151135;58;1980;-69
2021/06/04 04:47:21;;;;;;;;;;;;;;;;;;2151317;59;1181;-69
2021/06/04 04:49:46;;;;;;;;;;;;;;;;;;2150902;58;1420;-69
2021/06/04 04:52:12;;;;;;;;;;;;;;;;;;2151989;66;1139;-69
2021/06/04 04:54:38;;;;;;;;;;;;;;;;;;2153258;66;1556;-69
2021/06/04 04:57:05;;;;;;;;;;;;;;;;;;2153239;58;1299;-69
2021/06/04 04:59:30;;;;;;;;;;;;;;;;;;2152434;66;1493;-69
2021/06/04 05:01:55;;;;;;;;;;;;;;;;;;2150580;58;1547;-69
2021/06/04 05:04:20;;;;;;;;;;;;;;;;;;2152534;66;1916;-69
2021/06/04 05:06:45;;;;;;;;;;;;;;;;;;2153216;58;1466;-69
2021/06/04 05:09:11;;;;;;;;;;;;;;;;;;2153770;66;1194;-69
2021/06/04 05:11:36;;;;;;;;;;;;;;;;;;2153703;66;1503;-69
2021/06/04 05:14:01;;;;;;;;;;;;;;;;;;2152499;66;1338;-69
2021/06/04 05:16:26;;;;;;;;;;;;;;;;;;2153719;58;1466;-69
2021/06/04 05:18:52;;;;;;;;;;;;;;;;;;2152999;66;1275;-69
2021/06/04 05:21:17;;;;;;;;;;;;;;;;;;2152845;66;1170;-69
2021/06/04 05:23:43;;;;;;;;;;;;;;;;;;2151649;59;1926;-69
2021/06/04 05:26:08;;;;;;;;;;;;;;;;;;2155560;66;1500;-69
2021/06/04 05:28:33;;;;;;;;;;;;;;;;;;2149229;66;1501;-69
2021/06/04 05:31:02;;;;;;;;;;;;;;;;;;2148685;66;1792;-69
2021/06/04 05:33:32;;;;;;;;;;;;;;;;;;2152469;66;2814;-69
2021/06/04 05:35:57;;;;;;;;;;;;;;;;;;2153635;66;2278;-69
2021/06/04 05:38:23;;;;;;;;;;;;;;;;;;2148973;66;1488;-69
2021/06/04 05:40:49;;;;;;;;;;;;;;;;;;2152086;58;1180;-69
2021/06/04 05:43:15;;;;;;;;;;;;;;;;;;2153337;66;1164;-69
2021/06/04 05:45:42;;;;;;;;;;;;;;;;;;2155319;66;1939;-69
2021/06/04 05:48:08;;;;;;;;;;;;;;;;;;2154645;58;1339;-69
2021/06/04 05:50:36;;;;;;;;;;;;;;;;;;2153103;66;1468;-69
2021/06/04 05:53:01;;;;;;;;;;;;;;;;;;2150120;66;1374;-69
2021/06/04 05:55:27;;;;;;;;;;;;;;;;;;2151710;66;1191;-69
2021/06/04 05:57:52;;;;;;;;;;;;;;;;;;2154406;66;1237;-69
2021/06/04 06:00:21;;;;;;;;;;;;;;;;;;2152883;58;1412;-69
2021/06/04 06:02:46;;;;;;;;;;;;;;;;;;2154345;66;1300;-69
2021/06/04 06:05:12;;;;;;;;;;;;;;;;;;2153367;66;1997;-70
2021/06/04 06:07:37;;;;;;;;;;;;;;;;;;2153845;58;1218;-69
2021/06/04 06:10:03;;;;;;;;;;;;;;;;;;2151914;66;1260;-70
2021/06/04 06:12:29;;;;;;;;;;;;;;;;;;2153808;66;1157;-69
2021/06/04 06:14:54;;;;;;;;;;;;;;;;;;2153592;58;1241;-69
2021/06/04 06:17:19;;;;;;;;;;;;;;;;;;2152626;66;1397;-70
2021/06/04 06:19:44;;;;;;;;;;;;;;;;;;2153047;66;1201;-69
2021/06/04 06:22:10;;;;;;;;;;;;;;;;;;2153389;66;1161;-68
2021/06/04 06:24:36;;;;;;;;;;;;;;;;;;2153391;66;2004;-69
2021/06/04 06:27:01;;;;;;;;;;;;;;;;;;2152102;66;1721;-68
2021/06/04 06:29:29;;;;;;;;;;;;;;;;;;2152791;58;1320;-69
2021/06/04 06:31:55;;;;;;;;;;;;;;;;;;2153604;58;1865;-69
2021/06/04 06:34:20;;;;;;;;;;;;;;;;;;2152379;58;2495;-69
2021/06/04 06:36:46;;;;;;;;;;;;;;;;;;2154316;66;1313;-69
2021/06/04 06:39:13;;;;;;;;;;;;;;;;;;2153655;66;1128;-69
2021/06/04 06:41:40;;;;;;;;;;;;;;;;;;2154255;58;1340;-69
2021/06/04 06:44:05;;;;;;;;;;;;;;;;;;2151869;59;2003;-69
2021/06/04 06:46:30;;;;;;;;;;;;;;;;;;2153077;66;1149;-69
2021/06/04 06:48:56;;;;;;;;;;;;;;;;;;2152939;66;1241;-69
2021/06/04 06:51:21;;;;;;;;;;;;;;;;;;2149403;58;1570;-69
2021/06/04 06:53:48;;;;;;;;;;;;;;;;;;2151338;66;1558;-69
2021/06/04 06:56:14;;;;;;;;;;;;;;;;;;2152450;66;1214;-70
2021/06/04 06:58:40;;;;;;;;;;;;;;;;;;2151879;66;1132;-69
2021/06/04 07:01:06;;;;;;;;;;;;;;;;;;2152831;58;2741;-69
2021/06/04 07:03:32;;;;;;;;;;;;;;;;;;2151301;66;2583;-69
2021/06/04 07:05:59;;;;;;;;;;;;;;;;;;2151934;66;2002;-69
2021/06/04 07:08:24;;;;;;;;;;;;;;;;;;2152833;66;1336;-69
2021/06/04 07:10:49;;;;;;;;;;;;;;;;;;2148652;66;1168;-69
2021/06/04 07:13:16;;;;;;;;;;;;;;;;;;2153805;66;2077;-69
2021/06/04 07:15:42;;;;;;;;;;;;;;;;;;2154357;58;1440;-69
2021/06/04 07:18:08;;;;;;;;;;;;;;;;;;2153299;66;1170;-69
2021/06/04 07:20:34;;;;;;;;;;;;;;;;;;2149540;66;1913;-70
2021/06/04 07:23:00;;;;;;;;;;;;;;;;;;2152453;66;1204;-69
2021/06/04 07:25:27;;;;;;;;;;;;;;;;;;2150949;66;1934;-69
2021/06/04 07:27:52;;;;;;;;;;;;;;;;;;2151444;66;2339;-69
2021/06/04 07:30:20;;;;;;;;;;;;;;;;;;2151048;66;1407;-69
2021/06/04 07:32:45;;;;;;;;;;;;;;;;;;2152181;66;1899;-69
2021/06/04 07:35:13;;;;;;;;;;;;;;;;;;2153811;66;1223;-70
2021/06/04 07:37:38;;;;;;;;;;;;;;;;;;2153600;66;1494;-69
2021/06/04 07:40:05;;;;;;;;;;;;;;;;;;2152345;58;1149;-69
2021/06/04 07:42:31;;;;;;;;;;;;;;;;;;2151675;66;1554;-70
2021/06/04 07:44:56;;;;;;;;;;;;;;;;;;2152595;61;1979;-69
2021/06/04 07:47:21;;;;;;;;;;;;;;;;;;2152158;58;1266;-69
2021/06/04 07:49:46;;;;;;;;;;;;;;;;;;2153177;66;1186;-68
2021/06/04 07:52:11;;;;;;;;;;;;;;;;;;2149396;66;1091;-68
2021/06/04 07:54:36;;;;;;;;;;;;;;;;;;2153200;66;1354;-68
2021/06/04 07:57:03;;;;;;;;;;;;;;;;;;2152361;66;1376;-68
2021/06/04 07:59:28;;;;;;;;;;;;;;;;;;2153372;66;3104;-68
2021/06/04 08:01:53;;;;;;;;;;;;;;;;;;2152203;58;2173;-67
2021/06/04 08:04:19;;;;;;;;;;;;;;;;;;2151086;66;2718;-69
2021/06/04 08:06:44;;;;;;;;;;;;;;;;;;2152583;58;1853;-69
2021/06/04 08:09:10;;;;;;;;;;;;;;;;;;2153466;66;1663;-67
2021/06/04 08:11:39;;;;;;;;;;;;;;;;;;2150605;58;1783;-68
2021/06/04 08:14:06;;;;;;;;;;;;;;;;;;2153673;66;1128;-67
2021/06/04 08:16:32;;;;;;;;;;;;;;;;;;2151642;58;1726;-67
2021/06/04 08:18:58;;;;;;;;;;;;;;;;;;2153346;66;1175;-68
2021/06/04 08:21:25;;;;;;;;;;;;;;;;;;2150089;66;1272;-69
2021/06/04 08:23:50;;;;;;;;;;;;;;;;;;2152232;66;1935;-67
2021/06/04 08:26:17;;;;;;;;;;;;;;;;;;2150902;66;1485;-69
2021/06/04 08:28:43;;;;;;;;;;;;;;;;;;2152361;58;1296;-68
2021/06/04 08:31:08;;;;;;;;;;;;;;;;;;2153217;66;1168;-69
2021/06/04 08:33:35;;;;;;;;;;;;;;;;;;2148349;66;1332;-66
2021/06/04 08:36:00;;;;;;;;;;;;;;;;;;2153089;66;1063;-67
2021/06/04 08:38:29;;;;;;;;;;;;;;;;;;2151124;66;1291;-68
2021/06/04 08:40:55;;;;;;;;;;;;;;;;;;2152938;58;1313;-68
2021/06/04 08:43:21;;;;;;;;;;;;;;;;;;2154150;66;1716;-68
2021/06/04 08:46:00;;;;;;;;;;;;;;;;;;2153801;66;1923;-68
2021/06/04 08:48:44;;;;;;;;;;;;;;;;;;2153519;66;1206;-69
2021/06/04 08:51:15;;;;;;;;;;;;;;;;;;2149806;66;1465;-67
2021/06/04 08:53:50;;;;;;;;;;;;;;;;;;2154364;66;1060;-68
2021/06/04 08:56:18;;;;;;;;;;;;;;;;;;2154023;66;2105;-69
2021/06/04 08:58:53;;;;;;;;;;;;;;;;;;2153033;58;2111;-68
2021/06/04 09:01:39;;;;;;;;;;;;;;;;;;2153281;58;2318;-72
2021/06/04 09:04:07;;;;;;;;;;;;;;;;;;2153231;58;2328;-69
2021/06/04 09:06:44;;;;;;;;;;;;;;;;;;2153002;58;1987;-70
2021/06/04 09:09:15;;;;;;;;;;;;;;;;;;2153090;58;2271;-70
2021/06/04 09:11:40;;;;;;;;;;;;;;;;;;2152596;66;1974;-68
2021/06/04 09:14:07;;;;;;;;;;;;;;;;;;2153083;58;2242;-70
2021/06/04 09:16:41;;;;;;;;;;;;;;;;;;2154043;58;2096;-67
2021/06/04 09:19:14;;;;;;;;;;;;;;;;;;2154468;66;2419;-70
2021/06/04 09:21:41;;;;;;;;;;;;;;;;;;2153593;58;2231;-71
2021/06/04 09:24:08;;;;;;;;;;;;;;;;;;2151991;66;1931;-70
2021/06/04 09:26:34;;;;;;;;;;;;;;;;;;2149885;66;1179;-71
2021/06/04 09:29:01;;;;;;;;;;;;;;;;;;2153327;58;2179;-70
2021/06/04 09:31:34;;;;;;;;;;;;;;;;;;2153455;58;2060;-71
2021/06/04 09:34:11;;;;;;;;;;;;;;;;;;2152901;58;2184;-70
2021/06/04 09:36:50;;;;;;;;;;;;;;;;;;2152120;58;2614;-73
2021/06/04 09:39:33;;;;;;;;;;;;;;;;;;2153651;58;2196;-70
2021/06/04 09:42:04;;;;;;;;;;;;;;;;;;2152118;58;2746;-70
2021/06/04 09:44:31;;;;;;;;;;;;;;;;;;2153945;58;1946;-69
2021/06/04 09:47:05;;;;;;;;;;;;;;;;;;2152882;58;2170;-70
2021/06/04 09:49:33;;;;;;;;;;;;;;;;;;2153837;58;2350;-70
2021/06/04 09:52:14;;;;;;;;;;;;;;;;;;2152904;58;2024;-70
2021/06/04 09:54:39;;;;;;;;;;;;;;;;;;2153835;58;2050;-67
2021/06/04 09:57:18;;;;;;;;;;;;;;;;;;2152647;66;2375;-71
2021/06/04 09:59:44;;;;;;;;;;;;;;;;;;2153108;58;1950;-70
2021/06/04 10:02:32;;;;;;;;;;;;;;;;;;2152982;58;2037;-69
2021/06/04 10:05:16;;;;;;;;;;;;;;;;;;2149953;58;2051;-70
2021/06/04 10:07:41;;;;;;;;;;;;;;;;;;2152689;58;2883;-71
2021/06/04 10:10:26;;;;;;;;;;;;;;;;;;2151128;58;2263;-70
2021/06/04 10:12:57;;;;;;;;;;;;;;;;;;2152136;58;1945;-69
2021/06/04 10:15:26;;;;;;;;;;;;;;;;;;2152041;58;2137;-71
2021/06/04 10:20:25;;;;;;;;;;;;;;;;;;2151209;58;2512;-73
2021/06/04 10:23:08;;;;;;;;;;;;;;;;;;2151225;58;2737;-70
2021/06/04 10:25:48;;;;;;;;;;;;;;;;;;2153328;58;2173;-72
2021/06/04 10:28:32;;;;;;;;;;;;;;;;;;2152476;58;2680;-70
2021/06/04 10:31:02;;;;;;;;;;;;;;;;;;2152826;58;2487;-72
2021/06/04 10:33:34;;;;;;;;;;;;;;;;;;2152032;58;1951;-72
2021/06/04 10:36:00;;;;;;;;;;;;;;;;;;2151263;58;3123;-72
2021/06/04 10:38:40;;;;;;;;;;;;;;;;;;2152227;58;2291;-70
2021/06/04 10:41:10;;;;;;;;;;;;;;;;;;2153097;58;2808;-70
2021/06/04 10:43:35;;;;;;;;;;;;;;;;;;2152591;58;2231;-70
2021/06/04 10:46:23;;;;;;;;;;;;;;;;;;2152276;58;2620;-70
2021/06/04 10:49:07;;;;;;;;;;;;;;;;;;2151262;58;2185;-69
2021/06/04 10:51:50;;;;;;;;;;;;;;;;;;2150931;58;2710;-70
2021/06/04 10:54:21;;;;;;;;;;;;;;;;;;2152566;58;2178;-69
2021/06/04 10:56:55;;;;;;;;;;;;;;;;;;2151481;58;2638;-70
2021/06/04 10:59:27;;;;;;;;;;;;;;;;;;2151378;58;2641;-70
2021/06/04 11:01:56;;;;;;;;;;;;;;;;;;2152668;58;1868;-70
2021/06/04 11:04:36;;;;;;;;;;;;;;;;;;2153230;58;2221;-71
2021/06/04 11:07:16;;;;;;;;;;;;;;;;;;2152736;58;2063;-70
2021/06/04 11:09:50;;;;;;;;;;;;;;;;;;2151858;58;1944;-70
2021/06/04 11:12:36;;;;;;;;;;;;;;;;;;2151373;58;2859;-70
2021/06/04 11:15:17;;;;;;;;;;;;;;;;;;2146982;58;2568;-70
2021/06/04 11:17:43;;;;;;;;;;;;;;;;;;2151703;58;2175;-69
2021/06/04 11:20:17;;;;;;;;;;;;;;;;;;2150880;58;2294;-70
2021/06/04 11:23:02;;;;;;;;;;;;;;;;;;2152642;58;1992;-70
2021/06/04 11:25:39;;;;;;;;;;;;;;;;;;2151656;58;2654;-69
2021/06/04 11:28:13;;;;;;;;;;;;;;;;;;2152607;58;2019;-70
2021/06/04 11:30:39;;;;;;;;;;;;;;;;;;2152381;58;2212;-70
2021/06/04 11:33:07;;;;;;;;;;;;;;;;;;2152066;58;2120;-70
2021/06/04 11:35:37;;;;;;;;;;;;;;;;;;2151125;63;1958;-69
2021/06/04 11:38:05;;;;;;;;;;;;;;;;;;2152195;58;2036;-70
2021/06/04 11:40:33;;;;;;;;;;;;;;;;;;2152966;58;2040;-70
2021/06/04 11:43:02;;;;;;;;;;;;;;;;;;2149761;58;2080;-69
2021/06/04 11:45:28;;;;;;;;;;;;;;;;;;2151755;58;2146;-69
2021/06/04 11:47:54;;;;;;;;;;;;;;;;;;2149113;58;1767;-70
2021/06/04 11:50:33;;;;;;;;;;;;;;;;;;2151613;58;2905;-70
2021/06/04 11:53:23;;;;;;;;;;;;;;;;;;2152126;58;2025;-70
2021/06/04 11:55:49;;;;;;;;;;;;;;;;;;2152225;66;1969;-69
2021/06/04 11:58:34;;;;;;;;;;;;;;;;;;2151957;58;2487;-70
2021/06/04 12:01:12;;;;;;;;;;;;;;;;;;2152047;58;1947;-69
2021/06/04 12:03:38;;;;;;;;;;;;;;;;;;2152015;58;2529;-69
2021/06/04 12:06:21;;;;;;;;;;;;;;;;;;2149823;58;2004;-70
2021/06/04 12:08:47;;;;;;;;;;;;;;;;;;2152823;58;1974;-69
2021/06/04 12:11:18;;;;;;;;;;;;;;;;;;2152812;58;2416;-70
2021/06/04 12:13:50;;;;;;;;;;;;;;;;;;2152387;58;2679;-71
2021/06/04 12:16:27;;;;;;;;;;;;;;;;;;2151918;58;1945;-69
2021/06/04 12:18:52;;;;;;;;;;;;;;;;;;2152455;58;1904;-70
2021/06/04 12:21:36;;;;;;;;;;;;;;;;;;2152114;66;1891;-69
2021/06/04 12:24:01;;;;;;;;;;;;;;;;;;2153569;58;2672;-70
2021/06/04 12:26:38;;;;;;;;;;;;;;;;;;2152554;58;2286;-70
2021/06/04 12:29:22;;;;;;;;;;;;;;;;;;2152579;58;1859;-70
2021/06/04 12:31:58;;;;;;;;;;;;;;;;;;2149180;66;2954;-70
2021/06/04 12:34:35;;;;;;;;;;;;;;;;;;2152883;58;2040;-70
2021/06/04 12:37:01;;;;;;;;;;;;;;;;;;2153217;58;1896;-70
2021/06/04 12:39:32;;;;;;;;;;;;;;;;;;2153590;58;2300;-70
2021/06/04 12:42:03;;;;;;;;;;;;;;;;;;2153458;58;2770;-70
2021/06/04 12:44:28;;;;;;;;;;;;;;;;;;2153079;58;3387;-70
2021/06/04 12:46:54;;;;;;;;;;;;;;;;;;2152079;58;1925;-70
2021/06/04 12:49:19;;;;;;;;;;;;;;;;;;2152218;58;2536;-70
2021/06/04 12:51:45;;;;;;;;;;;;;;;;;;2151403;58;1945;-70
2021/06/04 12:54:12;;;;;;;;;;;;;;;;;;2153263;58;1945;-70
2021/06/04 12:56:44;;;;;;;;;;;;;;;;;;2151687;58;2338;-70
2021/06/04 12:59:14;;;;;;;;;;;;;;;;;;2153461;58;2028;-70
2021/06/04 13:01:55;;;;;;;;;;;;;;;;;;2152758;58;1907;-68
2021/06/04 13:04:33;;;;;;;;;;;;;;;;;;2152531;58;2139;-69
2021/06/04 13:06:59;;;;;;;;;;;;;;;;;;2153600;58;1951;-69
2021/06/04 13:09:27;;;;;;;;;;;;;;;;;;2152914;58;2851;-69
2021/06/04 13:11:52;;;;;;;;;;;;;;;;;;2151192;58;2206;-69
2021/06/04 13:14:17;;;;;;;;;;;;;;;;;;2150352;66;1945;-69
2021/06/04 13:16:43;;;;;;;;;;;;;;;;;;2152228;58;2764;-69
2021/06/04 13:19:10;;;;;;;;;;;;;;;;;;2153896;58;1843;-70
2021/06/04 13:21:39;;;;;;;;;;;;;;;;;;2150730;58;2176;-71
2021/06/04 13:24:15;;;;;;;;;;;;;;;;;;2153032;58;2188;-70
2021/06/04 13:26:47;;;;;;;;;;;;;;;;;;2152129;58;1916;-71
2021/06/04 13:29:19;;;;;;;;;;;;;;;;;;2148947;58;2429;-70
2021/06/04 13:31:45;;;;;;;;;;;;;;;;;;2151422;58;2043;-69
2021/06/04 13:34:12;;;;;;;;;;;;;;;;;;2152614;58;2217;-69
2021/06/04 13:36:38;;;;;;;;;;;;;;;;;;2152120;58;2076;-69
2021/06/04 13:39:10;;;;;;;;;;;;;;;;;;2152290;58;2269;-68
2021/06/04 13:41:38;;;;;;;;;;;;;;;;;;2151413;58;2343;-68
2021/06/04 13:44:05;;;;;;;;;;;;;;;;;;2151581;58;2436;-68
2021/06/04 13:46:33;;;;;;;;;;;;;;;;;;2151022;58;2305;-68
2021/06/04 13:49:07;;;;;;;;;;;;;;;;;;2152865;58;1961;-69
2021/06/04 13:51:35;;;;;;;;;;;;;;;;;;2151397;58;2157;-68
2021/06/04 13:54:02;;;;;;;;;;;;;;;;;;2152336;58;2100;-69
2021/06/04 13:56:30;;;;;;;;;;;;;;;;;;2152570;58;1980;-69
2021/06/04 13:59:14;;;;;;;;;;;;;;;;;;2151294;58;2059;-68
2021/06/04 14:01:47;;;;;;;;;;;;;;;;;;2151147;58;2135;-69
2021/06/04 14:04:26;;;;;;;;;;;;;;;;;;2152433;58;2560;-69
2021/06/04 14:06:53;;;;;;;;;;;;;;;;;;2152184;58;1890;-69
2021/06/04 14:09:20;;;;;;;;;;;;;;;;;;2153602;58;2042;-70
2021/06/04 14:11:54;;;;;;;;;;;;;;;;;;2152305;58;2425;-70
2021/06/04 14:14:29;;;;;;;;;;;;;;;;;;2153892;58;2158;-69
2021/06/04 14:16:54;;;;;;;;;;;;;;;;;;2152690;58;2341;-69
2021/06/04 14:19:28;;;;;;;;;;;;;;;;;;2154993;66;2183;-70
2021/06/04 14:21:55;;;;;;;;;;;;;;;;;;2153724;66;2347;-69
2021/06/04 14:24:28;;;;;;;;;;;;;;;;;;2155611;66;2033;-69
2021/06/04 14:26:58;;;;;;;;;;;;;;;;;;2153557;66;2321;-69
2021/06/04 14:29:26;;;;;;;;;;;;;;;;;;2154263;58;1857;-69
2021/06/04 14:31:53;;;;;;;;;;;;;;;;;;2154206;66;1756;-70
2021/06/04 14:34:19;;;;;;;;;;;;;;;;;;2153510;66;1604;-70
2021/06/04 14:36:45;;;;;;;;;;;;;;;;;;2154003;66;1574;-70
2021/06/04 14:39:29;;;;;;;;;;;;;;;;;;2154075;66;1500;-70
2021/06/04 14:41:55;;;;;;;;;;;;;;;;;;2153695;58;1737;-70
2021/06/04 14:44:21;;;;;;;;;;;;;;;;;;2152981;66;1971;-70
2021/06/04 14:46:46;;;;;;;;;;;;;;;;;;2153886;66;1653;-70
2021/06/04 14:49:12;;;;;;;;;;;;;;;;;;2154943;66;1665;-70
2021/06/04 14:51:38;;;;;;;;;;;;;;;;;;2153219;66;1668;-70
2021/06/04 14:54:04;;;;;;;;;;;;;;;;;;2154238;66;1167;-70
2021/06/04 14:56:29;;;;;;;;;;;;;;;;;;2153928;58;1872;-70
2021/06/04 14:58:54;;;;;;;;;;;;;;;;;;2154881;66;1496;-70
2021/06/04 15:01:21;;;;;;;;;;;;;;;;;;2153509;58;1640;-70
2021/06/04 15:03:47;;;;;;;;;;;;;;;;;;2153701;66;2048;-69
2021/06/04 15:06:12;;;;;;;;;;;;;;;;;;2154397;59;1938;-69
2021/06/04 15:08:37;;;;;;;;;;;;;;;;;;2154775;58;1843;-69
2021/06/04 15:11:03;;;;;;;;;;;;;;;;;;2153933;66;2667;-69
2021/06/04 15:13:30;;;;;;;;;;;;;;;;;;2156307;66;1830;-70
2021/06/04 15:15:55;;;;;;;;;;;;;;;;;;2153574;58;1984;-69
2021/06/04 15:18:21;;;;;;;;;;;;;;;;;;2155542;66;1485;-69
2021/06/04 15:20:46;;;;;;;;;;;;;;;;;;2149741;66;1886;-68
2021/06/04 15:23:12;;;;;;;;;;;;;;;;;;2154662;58;2412;-68
2021/06/04 15:25:38;;;;;;;;;;;;;;;;;;2155150;66;2361;-69
2021/06/04 15:28:04;;;;;;;;;;;;;;;;;;2153535;58;2728;-69
2021/06/04 15:30:30;;;;;;;;;;;;;;;;;;2153974;58;1749;-69
2021/06/04 15:32:57;;;;;;;;;;;;;;;;;;2154546;66;1307;-69
2021/06/04 15:35:23;;;;;;;;;;;;;;;;;;2152562;58;2552;-69
2021/06/04 15:37:48;;;;;;;;;;;;;;;;;;2152634;58;2502;-69
2021/06/04 15:40:13;;;;;;;;;;;;;;;;;;2147895;58;2608;-69
2021/06/04 15:42:39;;;;;;;;;;;;;;;;;;2154122;58;2127;-70
2021/06/04 15:45:04;;;;;;;;;;;;;;;;;;2152992;58;1934;-70
2021/06/04 15:47:30;;;;;;;;;;;;;;;;;;2153058;58;1861;-70
2021/06/04 15:49:55;;;;;;;;;;;;;;;;;;2154420;66;1354;-69
2021/06/04 15:52:20;;;;;;;;;;;;;;;;;;2149338;58;1839;-69
2021/06/04 15:54:47;;;;;;;;;;;;;;;;;;2153291;66;1212;-69
2021/06/04 15:57:13;;;;;;;;;;;;;;;;;;2153876;66;1225;-69
2021/06/04 15:59:42;;;;;;;;;;;;;;;;;;2154945;58;1225;-69
2021/06/04 16:02:07;;;;;;;;;;;;;;;;;;2154084;66;1897;-69
2021/06/04 16:04:33;;;;;;;;;;;;;;;;;;2153486;58;1923;-71
2021/06/04 16:06:59;;;;;;;;;;;;;;;;;;2152916;66;2232;-69
2021/06/04 16:09:25;;;;;;;;;;;;;;;;;;2152321;66;2011;-68
2021/06/04 16:11:50;;;;;;;;;;;;;;;;;;2153944;58;2184;-69
2021/06/04 16:14:15;;;;;;;;;;;;;;;;;;2154749;58;2048;-69
2021/06/04 16:16:40;;;;;;;;;;;;;;;;;;2153701;58;1892;-69
2021/06/04 16:19:05;;;;;;;;;;;;;;;;;;2155328;58;2014;-69
2021/06/04 16:21:31;;;;;;;;;;;;;;;;;;2154276;58;1862;-71
2021/06/04 16:23:56;;;;;;;;;;;;;;;;;;2154050;66;1943;-71
2021/06/04 16:26:24;;;;;;;;;;;;;;;;;;2152522;66;2256;-69
2021/06/04 16:28:50;;;;;;;;;;;;;;;;;;2153436;58;2221;-69
2021/06/04 16:31:16;;;;;;;;;;;;;;;;;;2148799;58;2380;-68
2021/06/04 16:33:43;;;;;;;;;;;;;;;;;;2154221;58;2040;-68
2021/06/04 16:36:10;;;;;;;;;;;;;;;;;;2153893;58;2265;-69
2021/06/04 16:38:35;;;;;;;;;;;;;;;;;;2153469;58;1955;-70
2021/06/04 16:41:01;;;;;;;;;;;;;;;;;;2152581;58;2137;-69
2021/06/04 16:43:27;;;;;;;;;;;;;;;;;;2153210;58;1945;-69
2021/06/04 16:45:52;;;;;;;;;;;;;;;;;;2153327;58;2854;-69
2021/06/04 16:48:18;;;;;;;;;;;;;;;;;;2153539;58;2236;-69
2021/06/04 16:50:43;;;;;;;;;;;;;;;;;;2152634;58;2819;-69
2021/06/04 16:53:09;;;;;;;;;;;;;;;;;;2153949;66;1270;-69
2021/06/04 16:55:38;;;;;;;;;;;;;;;;;;2153019;58;2370;-69
2021/06/04 16:58:06;;;;;;;;;;;;;;;;;;2152586;58;2090;-70
2021/06/04 17:00:32;;;;;;;;;;;;;;;;;;2152435;58;2881;-70
2021/06/04 17:02:57;;;;;;;;;;;;;;;;;;2151866;66;2008;-69
2021/06/04 17:05:23;;;;;;;;;;;;;;;;;;2154155;66;1923;-70
2021/06/04 17:07:48;;;;;;;;;;;;;;;;;;2154405;58;1377;-69
2021/06/04 17:10:13;;;;;;;;;;;;;;;;;;2153990;59;1275;-70
2021/06/04 17:12:39;;;;;;;;;;;;;;;;;;2153915;66;1813;-70
2021/06/04 17:15:09;;;;;;;;;;;;;;;;;;2154075;58;1192;-69